Locustville, Virginia
Current Conditions -  °F | °C
As of 3:15 AM on Monday 24 Nov 2014 (Local Time) from KMFV Reporting Station
Overcast Overcast  
Wind Chill: 61°   Ceiling: 500
Heat Index: 61°   Visibility: 7mi
Dew Point: 59°   Wind: 16mph
Humidity: 94%   Direction: 180°S
Pressure: 29.79"   Gusts: 30mph
Location:  37.65°N, 75.68°W
Report Text: KMFV 240815Z AUTO 18014G26KT 140V240 7SM OVC005 16/15 A2979 RMK AO2 P0001
Loading
Personal Weather Stations






























Interactive Weather Map New forecast layout! Learn more

10-Day Weather Forecast

Advertisements
Track Severe Weather on mobile